sensor_id;sensor_type;location;lat;lon;timestamp;P1;durP1;ratioP1;P2;durP2;ratioP2
16906;SDS011;8570;52.380;4.654;2023-11-21T00:03:33;15.20;;;7.73;;
16906;SDS011;8570;52.380;4.654;2023-11-21T00:08:44;17.93;;;7.40;;
16906;SDS011;8570;52.380;4.654;2023-11-21T00:13:46;17.27;;;7.43;;
16906;SDS011;8570;52.380;4.654;2023-11-21T00:18:48;12.87;;;7.27;;
16906;SDS011;8570;52.380;4.654;2023-11-21T00:23:54;11.33;;;6.30;;
16906;SDS011;8570;52.380;4.654;2023-11-21T00:28:56;11.97;;;6.37;;
16906;SDS011;8570;52.380;4.654;2023-11-21T00:34:04;15.13;;;6.87;;
16906;SDS011;8570;52.380;4.654;2023-11-21T00:39:19;10.93;;;6.47;;
16906;SDS011;8570;52.380;4.654;2023-11-21T00:44:24;17.87;;;6.90;;
16906;SDS011;8570;52.380;4.654;2023-11-21T00:49:26;12.17;;;5.90;;
16906;SDS011;8570;52.380;4.654;2023-11-21T00:54:33;16.77;;;6.97;;
16906;SDS011;8570;52.380;4.654;2023-11-21T01:05:01;19.93;;;6.50;;
16906;SDS011;8570;52.380;4.654;2023-11-21T01:10:05;16.00;;;5.77;;
16906;SDS011;8570;52.380;4.654;2023-11-21T01:15:10;20.00;;;5.93;;
16906;SDS011;8570;52.380;4.654;2023-11-21T01:20:16;17.63;;;5.13;;
16906;SDS011;8570;52.380;4.654;2023-11-21T01:25:24;12.90;;;5.77;;
16906;SDS011;8570;52.380;4.654;2023-11-21T01:30:26;16.03;;;5.43;;
16906;SDS011;8570;52.380;4.654;2023-11-21T01:35:35;18.98;;;5.40;;
16906;SDS011;8570;52.380;4.654;2023-11-21T01:40:40;16.92;;;5.43;;
16906;SDS011;8570;52.380;4.654;2023-11-21T01:45:42;10.60;;;4.70;;
16906;SDS011;8570;52.380;4.654;2023-11-21T01:50:45;10.55;;;4.80;;
16906;SDS011;8570;52.380;4.654;2023-11-21T01:55:51;14.57;;;4.82;;
16906;SDS011;8570;52.380;4.654;2023-11-21T02:00:57;13.05;;;4.55;;
16906;SDS011;8570;52.380;4.654;2023-11-21T02:05:59;10.40;;;4.22;;
16906;SDS011;8570;52.380;4.654;2023-11-21T02:11:03;11.52;;;4.28;;
16906;SDS011;8570;52.380;4.654;2023-11-21T02:16:07;10.40;;;3.95;;
16906;SDS011;8570;52.380;4.654;2023-11-21T02:21:09;13.75;;;4.13;;
16906;SDS011;8570;52.380;4.654;2023-11-21T02:26:13;12.35;;;4.22;;
16906;SDS011;8570;52.380;4.654;2023-11-21T02:31:17;10.32;;;4.47;;
16906;SDS011;8570;52.380;4.654;2023-11-21T02:36:19;9.93;;;4.75;;
16906;SDS011;8570;52.380;4.654;2023-11-21T02:41:26;11.90;;;5.50;;
16906;SDS011;8570;52.380;4.654;2023-11-21T02:46:31;12.10;;;5.43;;
16906;SDS011;8570;52.380;4.654;2023-11-21T02:51:33;10.68;;;5.38;;
16906;SDS011;8570;52.380;4.654;2023-11-21T02:56:37;10.23;;;5.15;;
16906;SDS011;8570;52.380;4.654;2023-11-21T03:01:48;11.70;;;5.30;;
16906;SDS011;8570;52.380;4.654;2023-11-21T03:06:50;12.10;;;3.72;;
16906;SDS011;8570;52.380;4.654;2023-11-21T03:12:07;10.13;;;3.33;;
16906;SDS011;8570;52.380;4.654;2023-11-21T03:17:16;5.10;;;2.70;;
16906;SDS011;8570;52.380;4.654;2023-11-21T03:22:30;13.85;;;2.88;;
16906;SDS011;8570;52.380;4.654;2023-11-21T03:27:35;10.30;;;3.25;;
16906;SDS011;8570;52.380;4.654;2023-11-21T03:32:39;5.25;;;3.15;;
16906;SDS011;8570;52.380;4.654;2023-11-21T03:37:43;6.55;;;3.45;;
16906;SDS011;8570;52.380;4.654;2023-11-21T03:42:48;6.35;;;3.05;;
16906;SDS011;8570;52.380;4.654;2023-11-21T03:47:50;8.80;;;3.58;;
16906;SDS011;8570;52.380;4.654;2023-11-21T03:52:55;4.22;;;3.15;;
16906;SDS011;8570;52.380;4.654;2023-11-21T03:57:59;5.85;;;3.00;;
16906;SDS011;8570;52.380;4.654;2023-11-21T04:03:03;5.25;;;2.72;;
16906;SDS011;8570;52.380;4.654;2023-11-21T04:08:12;3.83;;;2.60;;
16906;SDS011;8570;52.380;4.654;2023-11-21T04:13:25;3.63;;;2.58;;
16906;SDS011;8570;52.380;4.654;2023-11-21T04:18:32;7.40;;;2.53;;
16906;SDS011;8570;52.380;4.654;2023-11-21T04:23:55;4.55;;;2.70;;
16906;SDS011;8570;52.380;4.654;2023-11-21T04:28:59;4.95;;;2.65;;
16906;SDS011;8570;52.380;4.654;2023-11-21T04:34:01;4.03;;;2.45;;
16906;SDS011;8570;52.380;4.654;2023-11-21T04:39:06;4.22;;;2.47;;
16906;SDS011;8570;52.380;4.654;2023-11-21T04:44:11;4.80;;;2.28;;
16906;SDS011;8570;52.380;4.654;2023-11-21T04:49:13;9.55;;;2.17;;
16906;SDS011;8570;52.380;4.654;2023-11-21T04:54:23;5.20;;;1.95;;
16906;SDS011;8570;52.380;4.654;2023-11-21T04:59:27;7.43;;;2.45;;
16906;SDS011;8570;52.380;4.654;2023-11-21T05:04:29;8.25;;;1.98;;
16906;SDS011;8570;52.380;4.654;2023-11-21T05:09:31;7.47;;;2.20;;
16906;SDS011;8570;52.380;4.654;2023-11-21T05:14:37;6.18;;;1.90;;
16906;SDS011;8570;52.380;4.654;2023-11-21T05:19:39;5.07;;;2.33;;
16906;SDS011;8570;52.380;4.654;2023-11-21T05:24:42;14.52;;;2.58;;
16906;SDS011;8570;52.380;4.654;2023-11-21T05:29:48;12.82;;;2.80;;
16906;SDS011;8570;52.380;4.654;2023-11-21T05:34:51;12.32;;;3.08;;
16906;SDS011;8570;52.380;4.654;2023-11-21T05:39:53;6.63;;;2.90;;
16906;SDS011;8570;52.380;4.654;2023-11-21T05:45:02;10.63;;;3.42;;
16906;SDS011;8570;52.380;4.654;2023-11-21T05:50:10;15.02;;;3.60;;
16906;SDS011;8570;52.380;4.654;2023-11-21T05:55:14;10.05;;;3.70;;
16906;SDS011;8570;52.380;4.654;2023-11-21T06:00:18;14.55;;;3.55;;
16906;SDS011;8570;52.380;4.654;2023-11-21T06:05:23;13.57;;;4.25;;
16906;SDS011;8570;52.380;4.654;2023-11-21T06:10:26;10.85;;;3.30;;
16906;SDS011;8570;52.380;4.654;2023-11-21T06:15:30;8.48;;;3.53;;
16906;SDS011;8570;52.380;4.654;2023-11-21T06:20:36;9.88;;;3.55;;
16906;SDS011;8570;52.380;4.654;2023-11-21T06:25:38;12.23;;;3.38;;
16906;SDS011;8570;52.380;4.654;2023-11-21T06:30:42;8.15;;;3.20;;
16906;SDS011;8570;52.380;4.654;2023-11-21T06:35:44;7.97;;;2.60;;
16906;SDS011;8570;52.380;4.654;2023-11-21T06:40:46;5.78;;;2.58;;
16906;SDS011;8570;52.380;4.654;2023-11-21T06:45:51;5.97;;;2.83;;
16906;SDS011;8570;52.380;4.654;2023-11-21T06:50:56;8.63;;;4.22;;
16906;SDS011;8570;52.380;4.654;2023-11-21T06:55:58;8.40;;;4.27;;
16906;SDS011;8570;52.380;4.654;2023-11-21T07:01:06;6.63;;;4.90;;
16906;SDS011;8570;52.380;4.654;2023-11-21T07:06:08;9.60;;;5.07;;
16906;SDS011;8570;52.380;4.654;2023-11-21T07:11:10;16.45;;;5.95;;
16906;SDS011;8570;52.380;4.654;2023-11-21T07:16:13;9.32;;;4.78;;
16906;SDS011;8570;52.380;4.654;2023-11-21T07:21:18;12.82;;;5.45;;
16906;SDS011;8570;52.380;4.654;2023-11-21T07:26:20;15.80;;;5.30;;
16906;SDS011;8570;52.380;4.654;2023-11-21T07:31:26;11.80;;;5.75;;
16906;SDS011;8570;52.380;4.654;2023-11-21T07:36:29;12.35;;;6.53;;
16906;SDS011;8570;52.380;4.654;2023-11-21T07:41:31;18.08;;;6.88;;
16906;SDS011;8570;52.380;4.654;2023-11-21T07:46:34;11.60;;;6.10;;
16906;SDS011;8570;52.380;4.654;2023-11-21T07:51:36;14.32;;;6.25;;
16906;SDS011;8570;52.380;4.654;2023-11-21T07:56:38;11.20;;;5.55;;
16906;SDS011;8570;52.380;4.654;2023-11-21T08:01:44;11.18;;;5.13;;
16906;SDS011;8570;52.380;4.654;2023-11-21T08:06:46;10.73;;;5.82;;
16906;SDS011;8570;52.380;4.654;2023-11-21T08:11:48;7.95;;;5.22;;
16906;SDS011;8570;52.380;4.654;2023-11-21T08:16:51;10.85;;;6.22;;
16906;SDS011;8570;52.380;4.654;2023-11-21T08:21:57;13.82;;;6.63;;
16906;SDS011;8570;52.380;4.654;2023-11-21T08:26:59;14.32;;;7.90;;
16906;SDS011;8570;52.380;4.654;2023-11-21T08:32:05;12.63;;;8.20;;
16906;SDS011;8570;52.380;4.654;2023-11-21T08:37:07;11.30;;;7.45;;
16906;SDS011;8570;52.380;4.654;2023-11-21T08:42:10;7.53;;;5.88;;
16906;SDS011;8570;52.380;4.654;2023-11-21T08:47:14;10.30;;;6.40;;
16906;SDS011;8570;52.380;4.654;2023-11-21T08:52:16;11.02;;;6.03;;
16906;SDS011;8570;52.380;4.654;2023-11-21T08:57:19;12.93;;;7.85;;
16906;SDS011;8570;52.380;4.654;2023-11-21T09:02:22;13.60;;;7.53;;
16906;SDS011;8570;52.380;4.654;2023-11-21T09:07:24;12.07;;;6.90;;
16906;SDS011;8570;52.380;4.654;2023-11-21T09:12:26;21.95;;;12.45;;
16906;SDS011;8570;52.380;4.654;2023-11-21T09:17:30;8.95;;;4.95;;
16906;SDS011;8570;52.380;4.654;2023-11-21T09:22:31;12.27;;;7.13;;
16906;SDS011;8570;52.380;4.654;2023-11-21T09:27:33;10.85;;;6.30;;
16906;SDS011;8570;52.380;4.654;2023-11-21T09:32:37;9.77;;;5.85;;
16906;SDS011;8570;52.380;4.654;2023-11-21T09:37:40;14.82;;;8.73;;
16906;SDS011;8570;52.380;4.654;2023-11-21T09:42:45;14.30;;;10.05;;
16906;SDS011;8570;52.380;4.654;2023-11-21T09:47:54;11.95;;;7.80;;
16906;SDS011;8570;52.380;4.654;2023-11-21T09:52:57;10.02;;;7.20;;
16906;SDS011;8570;52.380;4.654;2023-11-21T09:58:10;12.85;;;9.38;;
16906;SDS011;8570;52.380;4.654;2023-11-21T10:03:14;13.32;;;9.20;;
16906;SDS011;8570;52.380;4.654;2023-11-21T10:08:17;14.88;;;9.80;;
16906;SDS011;8570;52.380;4.654;2023-11-21T10:13:20;15.73;;;10.85;;
16906;SDS011;8570;52.380;4.654;2023-11-21T10:18:26;14.55;;;10.25;;
16906;SDS011;8570;52.380;4.654;2023-11-21T10:23:30;17.67;;;11.90;;
16906;SDS011;8570;52.380;4.654;2023-11-21T10:28:35;18.52;;;11.73;;
16906;SDS011;8570;52.380;4.654;2023-11-21T10:33:39;19.55;;;12.27;;
16906;SDS011;8570;52.380;4.654;2023-11-21T10:38:43;19.75;;;11.52;;
16906;SDS011;8570;52.380;4.654;2023-11-21T10:43:52;14.73;;;10.82;;
16906;SDS011;8570;52.380;4.654;2023-11-21T10:48:59;20.87;;;16.87;;
16906;SDS011;8570;52.380;4.654;2023-11-21T10:54:02;16.83;;;12.10;;
16906;SDS011;8570;52.380;4.654;2023-11-21T10:59:04;17.98;;;11.73;;
16906;SDS011;8570;52.380;4.654;2023-11-21T11:04:08;15.30;;;12.10;;
16906;SDS011;8570;52.380;4.654;2023-11-21T11:09:14;15.20;;;11.70;;
16906;SDS011;8570;52.380;4.654;2023-11-21T11:14:18;20.35;;;16.15;;
16906;SDS011;8570;52.380;4.654;2023-11-21T11:19:26;15.93;;;13.10;;
16906;SDS011;8570;52.380;4.654;2023-11-21T11:24:33;12.40;;;10.07;;
16906;SDS011;8570;52.380;4.654;2023-11-21T11:29:49;18.23;;;10.77;;
16906;SDS011;8570;52.380;4.654;2023-11-21T11:35:00;16.92;;;11.75;;
16906;SDS011;8570;52.380;4.654;2023-11-21T11:40:08;19.52;;;13.35;;
16906;SDS011;8570;52.380;4.654;2023-11-21T11:45:19;16.00;;;10.75;;
16906;SDS011;8570;52.380;4.654;2023-11-21T11:50:22;15.88;;;10.73;;
16906;SDS011;8570;52.380;4.654;2023-11-21T11:55:28;16.35;;;10.52;;
16906;SDS011;8570;52.380;4.654;2023-11-21T12:00:33;14.90;;;10.10;;
16906;SDS011;8570;52.380;4.654;2023-11-21T12:05:40;14.60;;;9.88;;
16906;SDS011;8570;52.380;4.654;2023-11-21T12:10:45;14.38;;;9.65;;
16906;SDS011;8570;52.380;4.654;2023-11-21T12:15:48;10.85;;;8.05;;
16906;SDS011;8570;52.380;4.654;2023-11-21T12:20:52;12.45;;;7.75;;
16906;SDS011;8570;52.380;4.654;2023-11-21T12:25:54;11.18;;;7.38;;
16906;SDS011;8570;52.380;4.654;2023-11-21T12:31:00;12.18;;;8.50;;
16906;SDS011;8570;52.380;4.654;2023-11-21T12:36:03;14.77;;;9.70;;
16906;SDS011;8570;52.380;4.654;2023-11-21T12:41:06;14.95;;;10.45;;
16906;SDS011;8570;52.380;4.654;2023-11-21T12:46:08;12.05;;;8.18;;
16906;SDS011;8570;52.380;4.654;2023-11-21T12:51:14;9.10;;;7.03;;
16906;SDS011;8570;52.380;4.654;2023-11-21T12:56:19;8.18;;;6.15;;
16906;SDS011;8570;52.380;4.654;2023-11-21T13:01:27;13.77;;;8.57;;
16906;SDS011;8570;52.380;4.654;2023-11-21T13:06:33;13.18;;;10.50;;
16906;SDS011;8570;52.380;4.654;2023-11-21T13:11:41;17.25;;;12.75;;
16906;SDS011;8570;52.380;4.654;2023-11-21T13:16:46;13.38;;;11.25;;
16906;SDS011;8570;52.380;4.654;2023-11-21T13:21:54;18.45;;;12.60;;
16906;SDS011;8570;52.380;4.654;2023-11-21T13:27:02;16.33;;;12.90;;
16906;SDS011;8570;52.380;4.654;2023-11-21T13:32:05;15.18;;;9.57;;
16906;SDS011;8570;52.380;4.654;2023-11-21T13:37:12;14.57;;;11.30;;
16906;SDS011;8570;52.380;4.654;2023-11-21T13:42:25;17.35;;;12.93;;
16906;SDS011;8570;52.380;4.654;2023-11-21T13:47:28;17.08;;;13.30;;
16906;SDS011;8570;52.380;4.654;2023-11-21T13:52:34;13.93;;;11.70;;
16906;SDS011;8570;52.380;4.654;2023-11-21T13:57:37;11.02;;;9.00;;
16906;SDS011;8570;52.380;4.654;2023-11-21T14:02:39;12.23;;;9.43;;
16906;SDS011;8570;52.380;4.654;2023-11-21T14:07:45;9.18;;;7.63;;
16906;SDS011;8570;52.380;4.654;2023-11-21T14:12:56;9.45;;;7.82;;
16906;SDS011;8570;52.380;4.654;2023-11-21T14:18:02;9.77;;;8.02;;
16906;SDS011;8570;52.380;4.654;2023-11-21T14:23:09;10.40;;;8.48;;
16906;SDS011;8570;52.380;4.654;2023-11-21T14:28:17;14.38;;;9.18;;
16906;SDS011;8570;52.380;4.654;2023-11-21T14:33:21;9.68;;;8.05;;
16906;SDS011;8570;52.380;4.654;2023-11-21T14:38:24;11.07;;;8.65;;
16906;SDS011;8570;52.380;4.654;2023-11-21T14:43:29;12.23;;;8.40;;
16906;SDS011;8570;52.380;4.654;2023-11-21T14:48:35;9.82;;;8.02;;
16906;SDS011;8570;52.380;4.654;2023-11-21T14:53:46;9.25;;;8.27;;
16906;SDS011;8570;52.380;4.654;2023-11-21T14:58:54;9.20;;;7.75;;
16906;SDS011;8570;52.380;4.654;2023-11-21T15:04:08;9.55;;;7.95;;
16906;SDS011;8570;52.380;4.654;2023-11-21T15:09:22;8.85;;;8.05;;
16906;SDS011;8570;52.380;4.654;2023-11-21T15:14:36;9.48;;;8.38;;
16906;SDS011;8570;52.380;4.654;2023-11-21T15:19:56;11.88;;;9.85;;
16906;SDS011;8570;52.380;4.654;2023-11-21T15:25:02;9.90;;;8.77;;
16906;SDS011;8570;52.380;4.654;2023-11-21T15:30:13;12.98;;;9.88;;
16906;SDS011;8570;52.380;4.654;2023-11-21T15:35:24;11.60;;;9.27;;
16906;SDS011;8570;52.380;4.654;2023-11-21T15:40:32;9.63;;;8.63;;
16906;SDS011;8570;52.380;4.654;2023-11-21T15:45:38;9.93;;;8.88;;
16906;SDS011;8570;52.380;4.654;2023-11-21T15:50:43;9.63;;;8.45;;
16906;SDS011;8570;52.380;4.654;2023-11-21T15:55:46;10.85;;;9.43;;
16906;SDS011;8570;52.380;4.654;2023-11-21T16:00:48;9.88;;;8.88;;
16906;SDS011;8570;52.380;4.654;2023-11-21T16:05:50;9.95;;;8.23;;
16906;SDS011;8570;52.380;4.654;2023-11-21T16:11:00;9.73;;;8.07;;
16906;SDS011;8570;52.380;4.654;2023-11-21T16:16:05;11.80;;;9.85;;
16906;SDS011;8570;52.380;4.654;2023-11-21T16:21:10;16.67;;;11.15;;
16906;SDS011;8570;52.380;4.654;2023-11-21T16:26:16;12.40;;;8.88;;
16906;SDS011;8570;52.380;4.654;2023-11-21T16:31:22;12.27;;;9.90;;
16906;SDS011;8570;52.380;4.654;2023-11-21T16:36:24;15.17;;;10.67;;
16906;SDS011;8570;52.380;4.654;2023-11-21T16:41:34;14.37;;;12.30;;
16906;SDS011;8570;52.380;4.654;2023-11-21T16:46:37;13.77;;;10.90;;
16906;SDS011;8570;52.380;4.654;2023-11-21T16:51:39;12.27;;;10.27;;
16906;SDS011;8570;52.380;4.654;2023-11-21T16:56:43;14.20;;;11.60;;
16906;SDS011;8570;52.380;4.654;2023-11-21T17:01:45;12.43;;;9.82;;
16906;SDS011;8570;52.380;4.654;2023-11-21T17:06:47;21.93;;;13.13;;
16906;SDS011;8570;52.380;4.654;2023-11-21T17:11:58;13.40;;;10.13;;
16906;SDS011;8570;52.380;4.654;2023-11-21T17:17:03;13.65;;;10.40;;
16906;SDS011;8570;52.380;4.654;2023-11-21T17:22:08;13.63;;;9.03;;
16906;SDS011;8570;52.380;4.654;2023-11-21T17:27:12;12.80;;;10.50;;
16906;SDS011;8570;52.380;4.654;2023-11-21T17:32:14;14.07;;;10.53;;
16906;SDS011;8570;52.380;4.654;2023-11-21T17:37:16;13.33;;;8.80;;
16906;SDS011;8570;52.380;4.654;2023-11-21T17:42:20;13.23;;;10.27;;
16906;SDS011;8570;52.380;4.654;2023-11-21T17:47:23;12.23;;;9.33;;
16906;SDS011;8570;52.380;4.654;2023-11-21T17:52:28;12.97;;;10.67;;
16906;SDS011;8570;52.380;4.654;2023-11-21T17:57:32;14.73;;;11.60;;
16906;SDS011;8570;52.380;4.654;2023-11-21T18:02:35;16.97;;;12.80;;
16906;SDS011;8570;52.380;4.654;2023-11-21T18:07:39;12.40;;;9.20;;
16906;SDS011;8570;52.380;4.654;2023-11-21T18:12:42;11.90;;;9.50;;
16906;SDS011;8570;52.380;4.654;2023-11-21T18:17:44;13.87;;;8.80;;
16906;SDS011;8570;52.380;4.654;2023-11-21T18:22:54;13.47;;;9.17;;
16906;SDS011;8570;52.380;4.654;2023-11-21T18:27:58;13.47;;;10.37;;
16906;SDS011;8570;52.380;4.654;2023-11-21T18:33:02;13.47;;;10.40;;
16906;SDS011;8570;52.380;4.654;2023-11-21T18:38:06;12.53;;;10.00;;
16906;SDS011;8570;52.380;4.654;2023-11-21T18:43:13;13.73;;;10.40;;
16906;SDS011;8570;52.380;4.654;2023-11-21T18:48:18;14.67;;;10.87;;
16906;SDS011;8570;52.380;4.654;2023-11-21T18:53:22;12.73;;;9.47;;
16906;SDS011;8570;52.380;4.654;2023-11-21T18:58:26;15.30;;;9.17;;
16906;SDS011;8570;52.380;4.654;2023-11-21T19:03:31;13.10;;;9.17;;
16906;SDS011;8570;52.380;4.654;2023-11-21T19:08:34;13.43;;;10.10;;
16906;SDS011;8570;52.380;4.654;2023-11-21T19:13:46;11.43;;;8.70;;
16906;SDS011;8570;52.380;4.654;2023-11-21T19:18:57;11.37;;;9.00;;
16906;SDS011;8570;52.380;4.654;2023-11-21T19:24:13;16.23;;;9.80;;
16906;SDS011;8570;52.380;4.654;2023-11-21T19:29:20;11.87;;;9.77;;
16906;SDS011;8570;52.380;4.654;2023-11-21T19:34:27;13.30;;;10.37;;
16906;SDS011;8570;52.380;4.654;2023-11-21T19:39:44;16.13;;;12.13;;
16906;SDS011;8570;52.380;4.654;2023-11-21T19:44:58;14.27;;;10.63;;
16906;SDS011;8570;52.380;4.654;2023-11-21T19:50:00;17.60;;;12.03;;
16906;SDS011;8570;52.380;4.654;2023-11-21T19:55:08;16.03;;;11.70;;
16906;SDS011;8570;52.380;4.654;2023-11-21T20:00:16;10.97;;;8.27;;
16906;SDS011;8570;52.380;4.654;2023-11-21T20:05:23;12.83;;;7.93;;
16906;SDS011;8570;52.380;4.654;2023-11-21T20:10:25;12.93;;;9.27;;
16906;SDS011;8570;52.380;4.654;2023-11-21T20:15:38;11.13;;;8.20;;
16906;SDS011;8570;52.380;4.654;2023-11-21T20:20:46;12.07;;;8.67;;
16906;SDS011;8570;52.380;4.654;2023-11-21T20:25:48;10.97;;;7.83;;
16906;SDS011;8570;52.380;4.654;2023-11-21T20:30:54;13.07;;;8.97;;
16906;SDS011;8570;52.380;4.654;2023-11-21T20:35:56;9.83;;;7.87;;
16906;SDS011;8570;52.380;4.654;2023-11-21T20:41:00;12.77;;;7.07;;
16906;SDS011;8570;52.380;4.654;2023-11-21T20:46:09;12.77;;;6.50;;
16906;SDS011;8570;52.380;4.654;2023-11-21T20:51:11;10.17;;;6.20;;
16906;SDS011;8570;52.380;4.654;2023-11-21T20:56:17;10.40;;;6.17;;
16906;SDS011;8570;52.380;4.654;2023-11-21T21:01:29;13.03;;;7.40;;
16906;SDS011;8570;52.380;4.654;2023-11-21T21:06:39;14.23;;;8.50;;
16906;SDS011;8570;52.380;4.654;2023-11-21T21:11:43;11.83;;;8.43;;
16906;SDS011;8570;52.380;4.654;2023-11-21T21:16:57;10.03;;;7.63;;
16906;SDS011;8570;52.380;4.654;2023-11-21T21:22:06;10.73;;;7.93;;
16906;SDS011;8570;52.380;4.654;2023-11-21T21:27:11;11.33;;;7.40;;
16906;SDS011;8570;52.380;4.654;2023-11-21T21:32:22;12.83;;;9.00;;
16906;SDS011;8570;52.380;4.654;2023-11-21T21:37:34;12.17;;;8.93;;
16906;SDS011;8570;52.380;4.654;2023-11-21T21:42:39;12.90;;;8.57;;
16906;SDS011;8570;52.380;4.654;2023-11-21T21:47:43;16.30;;;9.90;;
16906;SDS011;8570;52.380;4.654;2023-11-21T21:52:47;13.73;;;9.73;;
16906;SDS011;8570;52.380;4.654;2023-11-21T21:57:51;14.70;;;9.70;;
16906;SDS011;8570;52.380;4.654;2023-11-21T22:03:02;18.43;;;11.13;;
16906;SDS011;8570;52.380;4.654;2023-11-21T22:08:07;12.73;;;7.87;;
16906;SDS011;8570;52.380;4.654;2023-11-21T22:13:17;11.60;;;8.03;;
16906;SDS011;8570;52.380;4.654;2023-11-21T22:18:25;11.73;;;7.63;;
16906;SDS011;8570;52.380;4.654;2023-11-21T22:23:28;13.00;;;8.93;;
16906;SDS011;8570;52.380;4.654;2023-11-21T22:28:32;13.70;;;9.37;;
16906;SDS011;8570;52.380;4.654;2023-11-21T22:33:44;11.87;;;7.77;;
16906;SDS011;8570;52.380;4.654;2023-11-21T22:38:47;10.00;;;7.57;;
16906;SDS011;8570;52.380;4.654;2023-11-21T22:43:52;11.00;;;8.10;;
16906;SDS011;8570;52.380;4.654;2023-11-21T22:54:26;11.30;;;7.63;;
16906;SDS011;8570;52.380;4.654;2023-11-21T22:59:29;10.27;;;7.00;;
16906;SDS011;8570;52.380;4.654;2023-11-21T23:04:35;15.73;;;8.70;;
16906;SDS011;8570;52.380;4.654;2023-11-21T23:09:57;11.50;;;7.00;;
16906;SDS011;8570;52.380;4.654;2023-11-21T23:14:59;11.23;;;6.87;;
16906;SDS011;8570;52.380;4.654;2023-11-21T23:20:12;13.13;;;7.37;;
16906;SDS011;8570;52.380;4.654;2023-11-21T23:31:02;11.00;;;7.43;;
16906;SDS011;8570;52.380;4.654;2023-11-21T23:36:08;12.47;;;7.87;;
16906;SDS011;8570;52.380;4.654;2023-11-21T23:41:14;11.73;;;8.30;;
16906;SDS011;8570;52.380;4.654;2023-11-21T23:46:22;10.47;;;8.17;;
16906;SDS011;8570;52.380;4.654;2023-11-21T23:51:28;10.70;;;8.00;;
16906;SDS011;8570;52.380;4.654;2023-11-21T23:56:30;11.13;;;7.97;;
